SHU2455 UNKL-UEEE
Flight info
| Callsign | SHU2455 |
|---|---|
| Flight time | N/A |
| Altitude | 35000 |
| Route | PENAP2F PENAP W263 BARIK W339 LANAP W105 ERBOG W39 GISUN W289 ABGUR ABGUR6D |
| Aircraft | A319/M-SDE3FGHIRWY/LB1 |
Departure
| Time | 2026-04-27 14:40 |
|---|---|
| Airport | Krasnoyarsk International Airport (UNKL) |
Arrival
| Time | N/A |
|---|---|
| Airport | Platon Oyunsky Yakutsk International Airport (UEEE) |
| Time | Latitude | Longitude | Altitude | Speed | Heading |
|---|---|---|---|---|---|
| 2026-04-27 14:18 | 56.17924 | 92.48616 | 951 ft | 0 kts | 21° |
| 2026-04-27 14:29 | 56.17918 | 92.48612 | 951 ft | 4 kts | 21° |
| 2026-04-27 14:30 | 56.17893 | 92.48596 | 950 ft | 4 kts | 15° |
| 2026-04-27 14:30 | 56.17874 | 92.48589 | 952 ft | 2 kts | 4° |
| 2026-04-27 14:30 | 56.17855 | 92.48590 | 951 ft | 2 kts | 333° |
| 2026-04-27 14:30 | 56.17841 | 92.48615 | 952 ft | 2 kts | 298° |
| 2026-04-27 14:31 | 56.17840 | 92.48617 | 951 ft | 0 kts | 292° |
| 2026-04-27 14:33 | 56.17841 | 92.48616 | 951 ft | 0 kts | 292° |
| 2026-04-27 14:33 | 56.17846 | 92.48591 | 951 ft | 4 kts | 292° |
| 2026-04-27 14:33 | 56.17857 | 92.48521 | 951 ft | 7 kts | 273° |
| 2026-04-27 14:33 | 56.17820 | 92.48443 | 950 ft | 10 kts | 208° |
| 2026-04-27 14:34 | 56.17744 | 92.48415 | 951 ft | 13 kts | 160° |
| 2026-04-27 14:34 | 56.17699 | 92.48559 | 951 ft | 15 kts | 113° |
| 2026-04-27 14:34 | 56.17654 | 92.48747 | 950 ft | 11 kts | 113° |
| 2026-04-27 14:34 | 56.17619 | 92.48896 | 951 ft | 15 kts | 113° |
| 2026-04-27 14:35 | 56.17577 | 92.49071 | 951 ft | 14 kts | 113° |
| 2026-04-27 14:35 | 56.17536 | 92.49243 | 951 ft | 16 kts | 113° |
| 2026-04-27 14:35 | 56.17490 | 92.49440 | 951 ft | 18 kts | 113° |
| 2026-04-27 14:35 | 56.17449 | 92.49611 | 951 ft | 14 kts | 113° |
| 2026-04-27 14:36 | 56.17409 | 92.49778 | 950 ft | 16 kts | 114° |
| 2026-04-27 14:36 | 56.17362 | 92.49971 | 951 ft | 18 kts | 114° |
| 2026-04-27 14:36 | 56.17318 | 92.50156 | 951 ft | 15 kts | 113° |
| 2026-04-27 14:36 | 56.17274 | 92.50338 | 951 ft | 17 kts | 113° |
| 2026-04-27 14:37 | 56.17223 | 92.50547 | 950 ft | 19 kts | 113° |
| 2026-04-27 14:37 | 56.17170 | 92.50774 | 951 ft | 21 kts | 112° |
| 2026-04-27 14:37 | 56.17111 | 92.51025 | 950 ft | 23 kts | 112° |
| 2026-04-27 14:37 | 56.17068 | 92.51208 | 950 ft | 15 kts | 112° |
| 2026-04-27 14:38 | 56.17024 | 92.51396 | 950 ft | 17 kts | 112° |
| 2026-04-27 14:38 | 56.16972 | 92.51603 | 951 ft | 19 kts | 114° |
| 2026-04-27 14:38 | 56.16934 | 92.51769 | 950 ft | 14 kts | 112° |
| 2026-04-27 14:38 | 56.16896 | 92.51914 | 949 ft | 11 kts | 128° |
| 2026-04-27 14:39 | 56.16821 | 92.51985 | 951 ft | 13 kts | 160° |
| 2026-04-27 14:39 | 56.16729 | 92.52046 | 951 ft | 15 kts | 160° |
| 2026-04-27 14:39 | 56.16667 | 92.51957 | 952 ft | 15 kts | 276° |
| 2026-04-27 14:39 | 56.16720 | 92.51722 | 953 ft | 43 kts | 293° |
| 2026-04-27 14:40 | 56.16937 | 92.50814 | 954 ft | 112 kts | 293° |
| 2026-04-27 14:40 | 56.17312 | 92.49230 | 953 ft | 165 kts | 293° |
| 2026-04-27 14:40 | 56.17780 | 92.47263 | 1430 ft | 169 kts | 292° |
| 2026-04-27 14:40 | 56.18246 | 92.45319 | 2050 ft | 170 kts | 288° |
| 2026-04-27 14:41 | 56.18713 | 92.43351 | 2566 ft | 175 kts | 287° |
| 2026-04-27 14:41 | 56.19212 | 92.41210 | 2846 ft | 196 kts | 286° |
| 2026-04-27 14:41 | 56.19801 | 92.38826 | 3077 ft | 223 kts | 294° |
| 2026-04-27 14:41 | 56.21040 | 92.36821 | 3363 ft | 263 kts | 332° |
| 2026-04-27 14:42 | 56.22922 | 92.36439 | 3914 ft | 287 kts | 10° |
| 2026-04-27 14:42 | 56.24710 | 92.38056 | 4811 ft | 292 kts | 40° |
| 2026-04-27 14:42 | 56.26087 | 92.40752 | 5706 ft | 293 kts | 53° |
| 2026-04-27 14:42 | 56.27245 | 92.43796 | 6567 ft | 296 kts | 58° |
| 2026-04-27 14:43 | 56.28343 | 92.46908 | 7347 ft | 300 kts | 58° |
| 2026-04-27 14:43 | 56.29489 | 92.50065 | 8135 ft | 305 kts | 56° |
| 2026-04-27 14:43 | 56.30706 | 92.53229 | 8928 ft | 309 kts | 54° |
| 2026-04-27 14:43 | 56.31989 | 92.56392 | 9715 ft | 314 kts | 52° |
| 2026-04-27 14:44 | 56.33327 | 92.59578 | 10251 ft | 327 kts | 52° |
| 2026-04-27 14:44 | 56.34768 | 92.62946 | 10476 ft | 350 kts | 51° |
| 2026-04-27 14:44 | 56.36309 | 92.66524 | 10766 ft | 369 kts | 51° |
| 2026-04-27 14:44 | 56.37902 | 92.70226 | 11369 ft | 376 kts | 51° |
| 2026-04-27 14:45 | 56.39489 | 92.73923 | 12058 ft | 379 kts | 52° |
| 2026-04-27 14:45 | 56.41106 | 92.77706 | 12762 ft | 383 kts | 52° |
| 2026-04-27 14:45 | 56.42738 | 92.81537 | 13456 ft | 387 kts | 52° |
| 2026-04-27 14:45 | 56.44383 | 92.85417 | 14103 ft | 390 kts | 52° |
| 2026-04-27 14:46 | 56.46041 | 92.89338 | 14713 ft | 393 kts | 52° |
| 2026-04-27 14:46 | 56.47707 | 92.93280 | 15363 ft | 395 kts | 52° |
| 2026-04-27 14:46 | 56.49380 | 92.97247 | 15987 ft | 398 kts | 52° |
| 2026-04-27 14:46 | 56.51069 | 93.01248 | 16608 ft | 401 kts | 51° |
| 2026-04-27 14:47 | 56.52767 | 93.05263 | 17218 ft | 404 kts | 51° |
| 2026-04-27 14:47 | 56.54483 | 93.09327 | 17821 ft | 407 kts | 51° |
| 2026-04-27 14:47 | 56.56210 | 93.13430 | 18410 ft | 410 kts | 51° |
| 2026-04-27 14:47 | 56.57942 | 93.17557 | 18941 ft | 413 kts | 51° |
| 2026-04-27 14:48 | 56.59680 | 93.21713 | 19494 ft | 415 kts | 51° |
| 2026-04-27 14:48 | 56.63176 | 93.30104 | 20604 ft | 419 kts | 51° |
| 2026-04-27 14:48 | 56.64938 | 93.34342 | 21152 ft | 421 kts | 51° |
| 2026-04-27 14:49 | 56.66684 | 93.38541 | 21673 ft | 423 kts | 51° |
| 2026-04-27 14:49 | 56.68460 | 93.42817 | 22184 ft | 425 kts | 51° |
| 2026-04-27 14:49 | 56.70245 | 93.47122 | 22705 ft | 427 kts | 51° |
| 2026-04-27 14:49 | 56.72036 | 93.51453 | 23196 ft | 428 kts | 51° |
| 2026-04-27 14:50 | 56.73827 | 93.55786 | 23684 ft | 429 kts | 51° |
| 2026-04-27 14:50 | 56.75680 | 93.60064 | 24093 ft | 430 kts | 49° |
| 2026-04-27 14:50 | 56.77607 | 93.64253 | 24500 ft | 431 kts | 47° |
| 2026-04-27 14:50 | 56.79573 | 93.68386 | 24911 ft | 433 kts | 46° |
| 2026-04-27 14:51 | 56.81562 | 93.72527 | 25298 ft | 434 kts | 46° |
| 2026-04-27 14:51 | 56.83549 | 93.76692 | 25697 ft | 436 kts | 47° |
| 2026-04-27 14:51 | 56.85531 | 93.80906 | 26068 ft | 438 kts | 47° |
| 2026-04-27 14:51 | 56.86835 | 93.83715 | 26335 ft | 439 kts | 47° |
| 2026-04-27 14:52 | 56.89471 | 93.89452 | 26848 ft | 441 kts | 47° |
| 2026-04-27 14:52 | 56.91440 | 93.93767 | 27225 ft | 443 kts | 47° |
| 2026-04-27 14:52 | 56.93410 | 93.98095 | 27585 ft | 444 kts | 47° |
| 2026-04-27 14:52 | 56.95395 | 94.02457 | 27959 ft | 446 kts | 47° |
| 2026-04-27 14:53 | 56.97380 | 94.06823 | 28315 ft | 447 kts | 47° |
| 2026-04-27 14:53 | 56.99381 | 94.11223 | 28655 ft | 449 kts | 47° |
| 2026-04-27 14:53 | 57.01388 | 94.15634 | 29061 ft | 449 kts | 47° |
| 2026-04-27 14:53 | 57.03370 | 94.19988 | 29424 ft | 450 kts | 47° |
| 2026-04-27 14:54 | 57.05380 | 94.24404 | 29763 ft | 451 kts | 47° |
| 2026-04-27 14:54 | 57.07394 | 94.28846 | 30096 ft | 453 kts | 47° |
| 2026-04-27 14:54 | 57.09407 | 94.33302 | 30372 ft | 454 kts | 47° |
| 2026-04-27 14:54 | 57.11421 | 94.37775 | 30742 ft | 453 kts | 47° |
| 2026-04-27 14:55 | 57.13420 | 94.42226 | 31104 ft | 452 kts | 47° |
| 2026-04-27 14:55 | 57.15425 | 94.46691 | 31466 ft | 451 kts | 47° |
| 2026-04-27 14:55 | 57.17416 | 94.51134 | 31833 ft | 450 kts | 47° |
| 2026-04-27 14:55 | 57.19406 | 94.55585 | 32190 ft | 449 kts | 47° |
| 2026-04-27 14:56 | 57.21396 | 94.60036 | 32552 ft | 448 kts | 47° |
| 2026-04-27 14:56 | 57.23376 | 94.64472 | 32915 ft | 448 kts | 47° |
| 2026-04-27 14:56 | 57.25350 | 94.68908 | 33278 ft | 447 kts | 47° |
| 2026-04-27 14:56 | 57.27320 | 94.73353 | 33643 ft | 446 kts | 47° |
| 2026-04-27 14:57 | 57.29283 | 94.77788 | 34044 ft | 445 kts | 48° |
| 2026-04-27 14:57 | 57.31238 | 94.82205 | 34420 ft | 443 kts | 48° |
| 2026-04-27 14:57 | 57.33181 | 94.86606 | 34737 ft | 442 kts | 48° |
| 2026-04-27 14:57 | 57.35123 | 94.91019 | 35002 ft | 442 kts | 48° |
| 2026-04-27 14:58 | 57.38983 | 94.99807 | 35084 ft | 441 kts | 48° |
| 2026-04-27 14:58 | 57.42874 | 95.08690 | 35096 ft | 441 kts | 48° |
| 2026-04-27 14:59 | 57.46716 | 95.17484 | 35096 ft | 441 kts | 48° |
| 2026-04-27 14:59 | 57.50569 | 95.26357 | 35096 ft | 441 kts | 48° |
| 2026-04-27 15:00 | 57.54427 | 95.35254 | 35122 ft | 441 kts | 48° |
| 2026-04-27 15:00 | 57.58273 | 95.44153 | 35116 ft | 441 kts | 48° |
| 2026-04-27 15:01 | 57.62119 | 95.53101 | 35117 ft | 442 kts | 48° |
| 2026-04-27 15:01 | 57.65946 | 95.62055 | 35132 ft | 442 kts | 49° |
| 2026-04-27 15:02 | 57.69772 | 95.71030 | 35130 ft | 441 kts | 49° |
| 2026-04-27 15:02 | 57.73601 | 95.80030 | 35128 ft | 441 kts | 49° |
| 2026-04-27 15:03 | 57.77385 | 95.88979 | 35126 ft | 441 kts | 49° |
| 2026-04-27 15:03 | 57.81193 | 95.98023 | 35128 ft | 441 kts | 49° |
| 2026-04-27 15:04 | 57.84996 | 96.07063 | 35133 ft | 442 kts | 49° |
| 2026-04-27 15:04 | 57.88805 | 96.16138 | 35151 ft | 442 kts | 49° |
| 2026-04-27 15:05 | 57.92598 | 96.25239 | 35147 ft | 442 kts | 49° |
| 2026-04-27 15:05 | 57.96376 | 96.34356 | 35144 ft | 441 kts | 49° |
| 2026-04-27 15:06 | 58.00143 | 96.43508 | 35150 ft | 441 kts | 49° |
| 2026-04-27 15:06 | 58.03869 | 96.52619 | 35157 ft | 441 kts | 50° |
| 2026-04-27 15:07 | 58.07610 | 96.61820 | 35157 ft | 442 kts | 50° |
| 2026-04-27 15:07 | 58.11347 | 96.71033 | 35164 ft | 442 kts | 50° |
| 2026-04-27 15:08 | 58.15087 | 96.80274 | 35179 ft | 441 kts | 50° |
| 2026-04-27 15:08 | 58.18806 | 96.89510 | 35176 ft | 441 kts | 50° |
| 2026-04-27 15:09 | 58.22523 | 96.98786 | 35177 ft | 440 kts | 50° |
| 2026-04-27 15:09 | 58.26217 | 97.08043 | 35172 ft | 440 kts | 50° |
| 2026-04-27 15:10 | 58.29926 | 97.17333 | 35183 ft | 440 kts | 50° |
| 2026-04-27 15:10 | 58.33598 | 97.26550 | 35187 ft | 440 kts | 50° |
| 2026-04-27 15:11 | 58.37285 | 97.35847 | 35183 ft | 440 kts | 50° |
| 2026-04-27 15:11 | 58.41105 | 97.44938 | 35181 ft | 438 kts | 46° |
| 2026-04-27 15:12 | 58.45103 | 97.53727 | 35198 ft | 438 kts | 46° |
| 2026-04-27 15:12 | 58.49090 | 97.62507 | 35193 ft | 438 kts | 46° |
| 2026-04-27 15:13 | 58.53025 | 97.71407 | 35201 ft | 438 kts | 47° |
| 2026-04-27 15:13 | 58.56934 | 97.80352 | 35201 ft | 437 kts | 47° |
| 2026-04-27 15:14 | 58.60177 | 97.87779 | 35189 ft | 437 kts | 47° |
| 2026-04-27 15:14 | 58.64087 | 97.96710 | 35191 ft | 437 kts | 47° |
| 2026-04-27 15:15 | 58.67993 | 98.05673 | 35188 ft | 437 kts | 47° |
| 2026-04-27 15:15 | 58.71893 | 98.14658 | 35190 ft | 437 kts | 47° |
| 2026-04-27 15:16 | 58.75786 | 98.23672 | 35203 ft | 437 kts | 47° |
| 2026-04-27 15:16 | 58.79672 | 98.32702 | 35210 ft | 437 kts | 47° |
| 2026-04-27 15:17 | 58.83545 | 98.41713 | 35208 ft | 436 kts | 47° |
| 2026-04-27 15:17 | 58.87379 | 98.50710 | 35214 ft | 436 kts | 47° |
| 2026-04-27 15:18 | 58.91231 | 98.59769 | 35209 ft | 436 kts | 47° |
| 2026-04-27 15:18 | 58.95076 | 98.68825 | 35209 ft | 435 kts | 47° |
| 2026-04-27 15:19 | 58.98911 | 98.77905 | 35203 ft | 435 kts | 47° |
| 2026-04-27 15:19 | 59.02739 | 98.87029 | 35200 ft | 435 kts | 47° |
| 2026-04-27 15:20 | 59.06562 | 98.96148 | 35215 ft | 435 kts | 47° |
| 2026-04-27 15:20 | 59.10378 | 99.05286 | 35200 ft | 435 kts | 47° |
| 2026-04-27 15:21 | 59.14187 | 99.14443 | 35195 ft | 436 kts | 47° |
| 2026-04-27 15:21 | 59.17997 | 99.23660 | 35195 ft | 436 kts | 47° |
| 2026-04-27 15:22 | 59.21790 | 99.32892 | 35196 ft | 436 kts | 47° |
| 2026-04-27 15:22 | 59.25558 | 99.42068 | 35194 ft | 436 kts | 47° |
| 2026-04-27 15:23 | 59.29353 | 99.51323 | 35205 ft | 436 kts | 47° |
| 2026-04-27 15:23 | 59.33138 | 99.60591 | 35206 ft | 436 kts | 48° |
| 2026-04-27 15:24 | 59.36913 | 99.69889 | 35201 ft | 436 kts | 48° |
| 2026-04-27 15:24 | 59.40682 | 99.79215 | 35200 ft | 437 kts | 47° |
| 2026-04-27 15:25 | 59.44450 | 99.88588 | 35204 ft | 438 kts | 48° |
| 2026-04-27 15:25 | 59.48226 | 99.98011 | 35198 ft | 438 kts | 48° |
| 2026-04-27 15:26 | 59.51970 | 100.07395 | 35212 ft | 439 kts | 48° |
| 2026-04-27 15:26 | 59.55766 | 100.16931 | 35209 ft | 439 kts | 48° |
| 2026-04-27 15:27 | 59.59503 | 100.26375 | 35215 ft | 439 kts | 48° |
| 2026-04-27 15:27 | 59.63264 | 100.35879 | 35214 ft | 439 kts | 48° |
| 2026-04-27 15:28 | 59.67025 | 100.45427 | 35211 ft | 439 kts | 48° |
| 2026-04-27 15:28 | 59.70764 | 100.54996 | 35224 ft | 440 kts | 48° |
| 2026-04-27 15:29 | 59.74486 | 100.64557 | 35235 ft | 440 kts | 48° |
| 2026-04-27 15:29 | 59.78249 | 100.74231 | 35222 ft | 440 kts | 48° |
| 2026-04-27 15:30 | 59.81956 | 100.83824 | 35221 ft | 441 kts | 48° |
| 2026-04-27 15:30 | 59.85687 | 100.93513 | 35210 ft | 441 kts | 48° |
| 2026-04-27 15:31 | 59.89405 | 101.03202 | 35208 ft | 441 kts | 48° |
| 2026-04-27 15:31 | 59.93111 | 101.12936 | 35207 ft | 441 kts | 48° |
| 2026-04-27 15:32 | 59.96809 | 101.22678 | 35210 ft | 440 kts | 48° |
| 2026-04-27 15:32 | 60.00519 | 101.32442 | 35235 ft | 441 kts | 48° |
| 2026-04-27 15:33 | 60.04224 | 101.42262 | 35213 ft | 442 kts | 48° |
| 2026-04-27 15:33 | 60.07916 | 101.52101 | 35218 ft | 442 kts | 48° |
| 2026-04-27 15:34 | 60.11603 | 101.61960 | 35216 ft | 442 kts | 48° |
| 2026-04-27 15:34 | 60.15284 | 101.71878 | 35213 ft | 442 kts | 48° |
| 2026-04-27 15:35 | 60.18950 | 101.81710 | 35212 ft | 442 kts | 48° |
| 2026-04-27 15:35 | 60.22639 | 101.91612 | 35231 ft | 443 kts | 48° |
| 2026-04-27 15:36 | 60.26320 | 102.01555 | 35227 ft | 443 kts | 48° |
| 2026-04-27 15:36 | 60.29996 | 102.11555 | 35227 ft | 443 kts | 49° |
| 2026-04-27 15:37 | 60.33655 | 102.21566 | 35252 ft | 443 kts | 49° |
| 2026-04-27 15:37 | 60.37009 | 102.31947 | 35246 ft | 449 kts | 60° |
| 2026-04-27 15:38 | 60.39249 | 102.43810 | 35245 ft | 452 kts | 65° |
| 2026-04-27 15:38 | 60.41405 | 102.55767 | 35248 ft | 452 kts | 65° |
| 2026-04-27 15:39 | 60.43572 | 102.67733 | 35244 ft | 452 kts | 65° |
| 2026-04-27 15:39 | 60.45725 | 102.79715 | 35262 ft | 452 kts | 65° |
| 2026-04-27 15:40 | 60.47857 | 102.91730 | 35253 ft | 452 kts | 65° |
| 2026-04-27 15:40 | 60.49979 | 103.03757 | 35246 ft | 452 kts | 65° |
| 2026-04-27 15:41 | 60.52084 | 103.15712 | 35253 ft | 452 kts | 65° |
| 2026-04-27 15:41 | 60.54201 | 103.27755 | 35249 ft | 453 kts | 65° |
| 2026-04-27 15:42 | 60.56301 | 103.39839 | 35246 ft | 453 kts | 65° |
| 2026-04-27 15:42 | 60.58375 | 103.51835 | 35243 ft | 453 kts | 66° |
| 2026-04-27 15:43 | 60.60451 | 103.63951 | 35251 ft | 453 kts | 66° |
| 2026-04-27 15:43 | 60.62509 | 103.76079 | 35270 ft | 452 kts | 66° |
| 2026-04-27 15:44 | 60.64563 | 103.88200 | 35277 ft | 452 kts | 66° |
| 2026-04-27 15:44 | 60.66608 | 104.00333 | 35266 ft | 452 kts | 66° |
| 2026-04-27 15:45 | 60.68629 | 104.12384 | 35270 ft | 452 kts | 66° |
| 2026-04-27 15:45 | 60.70642 | 104.24535 | 35257 ft | 452 kts | 66° |
| 2026-04-27 15:46 | 60.72643 | 104.36713 | 35266 ft | 452 kts | 66° |
| 2026-04-27 15:46 | 60.74632 | 104.48917 | 35285 ft | 452 kts | 66° |
| 2026-04-27 15:47 | 60.76608 | 104.61088 | 35286 ft | 451 kts | 66° |
| 2026-04-27 15:47 | 60.78571 | 104.73280 | 35287 ft | 450 kts | 66° |
| 2026-04-27 15:48 | 60.80520 | 104.85444 | 35282 ft | 450 kts | 66° |
| 2026-04-27 15:49 | 60.83410 | 105.03696 | 35286 ft | 450 kts | 67° |
| 2026-04-27 15:49 | 60.85326 | 105.15867 | 35273 ft | 450 kts | 67° |
| 2026-04-27 15:50 | 60.87240 | 105.28107 | 35293 ft | 450 kts | 67° |
| 2026-04-27 15:50 | 60.89135 | 105.40337 | 35292 ft | 449 kts | 67° |
| 2026-04-27 15:51 | 60.91018 | 105.52577 | 35287 ft | 449 kts | 67° |